Time;durP1;ratioP1;P1;durP2;ratioP2;P2;SDS_P1;SDS_P2;PMS_P1;PMS_P2;Temp;Humidity;BMP_temperature;BMP_pressure;BME280_temperature;BME280_humidity;BME280_pressure;Samples;Min_cycle;Max_cycle;Signal;HPM_P1;HPM_P2
2022/10/06 00:12:57;;;;;;;5.68;3.97;;;;;;;12.22;71.17;100617.88;30861177;28;115788;-66
2022/10/06 00:27:57;;;;;;;6.10;2.90;;;;;;;12.30;71.14;100624.06;30873395;28;96976;-63
2022/10/06 00:43:04;;;;;;;6.78;3.63;;;;;;;12.71;71.45;100628.41;30868681;28;97094;-65
2022/10/06 00:58:06;;;;;;;6.23;3.80;;;;;;;12.34;70.40;100624.53;30869575;28;96654;-65
2022/10/06 01:13:09;;;;;;;7.50;3.50;;;;;;;11.89;71.27;100631.25;30867928;28;96745;-65
2022/10/06 01:28:12;;;;;;;9.53;3.23;;;;;;;12.16;72.03;100628.22;30866085;28;97604;-65
2022/10/06 01:43:13;;;;;;;4.30;2.67;;;;;;;12.51;72.27;100636.00;30864304;28;96938;-67
2022/10/06 01:58:13;;;;;;;4.82;2.83;;;;;;;12.74;72.43;100652.13;30863434;28;96743;-65
2022/10/06 02:13:13;;;;;;;4.03;2.70;;;;;;;12.89;72.24;100654.06;30862592;28;96768;-67
2022/10/06 02:28:15;;;;;;;4.05;2.85;;;;;;;12.76;72.28;100671.50;30860313;28;97042;-67
2022/10/06 02:43:16;;;;;;;4.50;3.00;;;;;;;12.55;72.33;100684.59;30854271;28;97568;-67
2022/10/06 02:58:16;;;;;;;4.05;2.80;;;;;;;12.36;72.53;100697.34;30857458;28;98082;-67
2022/10/06 03:13:16;;;;;;;6.97;2.75;;;;;;;12.29;72.51;100704.38;30856421;28;96739;-65
2022/10/06 03:28:17;;;;;;;4.90;3.00;;;;;;;12.09;73.00;100723.38;30852945;28;115501;-65
2022/10/06 03:43:17;;;;;;;4.10;2.75;;;;;;;12.17;73.90;100730.56;30821386;28;97283;-66
2022/10/06 03:58:18;;;;;;;7.07;2.95;;;;;;;11.98;73.69;100740.56;30821459;28;115823;-66
2022/10/06 04:13:19;;;;;;;7.20;3.20;;;;;;;11.84;74.06;100755.38;30834208;28;96835;-66
2022/10/06 04:28:19;;;;;;;7.50;3.03;;;;;;;11.90;74.42;100766.41;30765805;28;97237;-66
2022/10/06 04:43:20;;;;;;;6.03;3.53;;;;;;;12.00;74.45;100780.47;30763810;28;109049;-68
2022/10/06 04:58:20;;;;;;;6.50;3.05;;;;;;;12.08;75.00;100796.50;30848506;28;97480;-67
2022/10/06 05:13:20;;;;;;;5.55;4.55;;;;;;;11.91;74.40;100824.16;30906081;28;119118;-66
2022/10/06 05:28:22;;;;;;;9.18;3.88;;;;;;;11.94;74.92;100843.38;30903739;28;116394;-64
2022/10/06 05:43:22;;;;;;;7.57;3.57;;;;;;;12.24;74.82;100850.94;30877539;28;97437;-63
2022/10/06 05:58:23;;;;;;;8.43;3.70;;;;;;;12.82;74.24;100868.69;30858817;28;113558;-66
2022/10/06 06:13:23;;;;;;;4.80;3.03;;;;;;;13.53;73.42;100902.81;30823324;28;108752;-64
2022/10/06 06:28:23;;;;;;;7.55;3.25;;;;;;;14.29;72.38;100924.59;30854995;28;113262;-66
2022/10/06 06:43:24;;;;;;;8.48;3.13;;;;;;;15.31;70.87;100954.81;30815767;28;96839;-65
2022/10/06 06:58:24;;;;;;;5.50;2.85;;;;;;;16.37;69.33;100960.00;30842123;28;98606;-66
2022/10/06 07:13:25;;;;;;;7.47;3.22;;;;;;;17.58;67.90;100986.16;30836330;28;96763;-67
2022/10/06 07:28:25;;;;;;;4.57;2.53;;;;;;;19.71;62.77;100987.72;30819221;28;119613;-65
2022/10/06 07:43:25;;;;;;;8.00;2.40;;;;;;;19.89;59.83;101013.31;30795472;28;115538;-65
2022/10/06 07:58:25;;;;;;;8.55;2.60;;;;;;;19.94;58.16;101025.16;30787979;28;106735;-63
2022/10/06 08:13:26;;;;;;;13.15;4.35;;;;;;;21.15;56.64;101051.66;30848882;28;111935;-62
2022/10/06 08:28:29;;;;;;;9.10;2.40;;;;;;;20.77;54.32;101079.59;30877413;28;97046;-61
2022/10/06 08:43:31;;;;;;;25.90;3.57;;;;;;;21.13;52.65;101102.50;30863242;28;96814;-61
2022/10/06 08:58:49;;;;;;;6.93;2.30;;;;;;;20.35;53.93;101131.34;30823842;28;96827;-62
2022/10/06 09:14:16;;;;;;;7.97;3.00;;;;;;;20.35;54.51;101141.34;30889236;28;97589;-63
2022/10/06 09:29:17;;;;;;;5.20;1.60;;;;;;;25.00;44.78;101171.69;30862702;28;96971;-63
2022/10/06 09:44:26;;;;;;;10.05;3.35;;;;;;;;;;30869637;28;98660;-60
2022/10/06 09:59:33;;;;;;;3.23;2.30;;;;;;;20.09;52.89;101213.38;30862737;28;96420;-64
2022/10/06 10:14:37;;;;;;;11.50;3.00;;;;;;;19.35;54.67;101228.63;30858604;28;96825;-64
2022/10/06 10:30:02;;;;;;;10.33;1.80;;;;;;;18.67;55.79;101269.81;30821097;28;97291;-64
2022/10/06 10:45:12;;;;;;;2.13;1.20;;;;;;;17.68;55.85;101295.69;30939988;28;98554;-62
2022/10/06 11:00:19;;;;;;;3.37;1.17;;;;;;;17.30;56.59;101310.13;30964828;28;97535;-68
2022/10/06 11:15:22;;;;;;;6.77;1.43;;;;;;;17.35;56.10;101329.28;30914367;28;97388;-62
2022/10/06 11:30:26;;;;;;;5.10;1.30;;;;;;;18.12;54.65;101324.34;30800805;28;96897;-61
2022/10/06 11:45:34;;;;;;;2.47;0.80;;;;;;;17.80;52.66;101328.34;30835462;28;98257;-65
2022/10/06 12:00:35;;;;;;;2.67;1.03;;;;;;;17.50;52.43;101349.97;30798299;28;97925;-63
2022/10/06 12:15:59;;;;;;;3.60;0.73;;;;;;;18.00;51.70;101356.41;30868031;28;97030;-63
2022/10/06 12:31:11;;;;;;;1.30;0.73;;;;;;;19.04;50.24;101371.25;30828300;28;97645;-61
2022/10/06 12:46:18;;;;;;;6.33;0.80;;;;;;;18.85;49.36;101383.53;30834475;28;97305;-61
2022/10/06 13:01:21;;;;;;;3.23;1.47;;;;;;;18.05;50.79;101398.97;30860539;28;96876;-62
2022/10/06 13:16:28;;;;;;;1.67;1.03;;;;;;;20.01;49.74;101400.19;30866399;28;98743;-62
2022/10/06 13:31:30;;;;;;;2.30;0.93;;;;;;;32.39;32.88;101407.00;30896695;28;96713;-64
2022/10/06 13:46:40;;;;;;;3.30;0.63;;;;;;;38.91;21.57;101413.75;30920192;28;97603;-64
2022/10/06 14:01:41;;;;;;;3.53;0.63;;;;;;;38.66;19.90;101407.09;30885849;28;96954;-64
2022/10/06 14:16:47;;;;;;;5.53;1.20;;;;;;;37.01;19.81;101423.31;30881734;28;97095;-63
2022/10/06 14:31:48;;;;;;;3.67;1.50;;;;;;;33.37;22.75;101425.38;30978448;28;97319;-63
2022/10/06 14:46:49;;;;;;;2.45;0.63;;;;;;;32.30;22.86;101439.09;30876339;28;96841;-63
2022/10/06 15:01:49;;;;;;;5.07;0.90;;;;;;;24.61;31.75;101446.59;30937676;28;96717;-63
2022/10/06 15:16:51;;;;;;;4.53;1.08;;;;;;;21.83;36.48;101464.19;30861830;28;97509;-63
2022/10/06 15:31:51;;;;;;;3.07;1.00;;;;;;;19.75;40.28;101467.47;30852773;28;97536;-69
2022/10/06 15:46:54;;;;;;;8.57;1.77;;;;;;;18.32;43.62;101474.78;30863860;28;98142;-65
2022/10/06 16:01:58;;;;;;;5.27;1.80;;;;;;;16.81;46.48;101483.72;30915615;28;97086;-68
2022/10/06 16:17:00;;;;;;;11.10;4.87;;;;;;;15.63;49.33;101495.38;30821739;28;96777;-67
2022/10/06 16:32:00;;;;;;;10.53;4.37;;;;;;;14.78;52.31;101508.19;30881808;28;98617;-65
2022/10/06 16:47:01;;;;;;;7.65;2.65;;;;;;;14.10;54.57;101520.69;30779798;28;97477;-64
2022/10/06 17:02:01;;;;;;;5.78;2.10;;;;;;;13.47;56.75;101530.72;30830554;28;97131;-64
2022/10/06 17:17:02;;;;;;;8.77;3.50;;;;;;;12.97;58.60;101547.31;30851768;28;97101;-64
2022/10/06 17:32:02;;;;;;;10.15;4.47;;;;;;;12.43;60.00;101560.63;30861458;28;96970;-63
2022/10/06 17:47:02;;;;;;;6.43;2.78;;;;;;;11.91;61.11;101571.78;30863790;28;97046;-62
2022/10/06 18:02:05;;;;;;;8.07;3.60;;;;;;;11.46;63.19;101563.44;30861443;28;97325;-66
2022/10/06 18:17:05;;;;;;;9.93;5.63;;;;;;;11.14;64.48;101580.59;30861137;28;97859;-66
2022/10/06 18:32:06;;;;;;;11.40;5.60;;;;;;;10.90;65.88;101594.31;30773725;28;118007;-66
2022/10/06 19:02:25;;;;;;;13.10;5.57;;;;;;;10.36;67.60;101611.53;30811117;28;97371;-65
2022/10/06 19:17:25;;;;;;;16.13;8.80;;;;;;;10.13;68.34;101620.53;30789345;28;97691;-65
2022/10/06 19:32:30;;;;;;;13.98;6.43;;;;;;;9.85;68.90;101621.19;30840134;28;97172;-65
2022/10/06 19:47:31;;;;;;;11.67;7.50;;;;;;;9.57;70.02;101631.53;30853123;28;97380;-65
2022/10/06 20:02:31;;;;;;;16.92;7.22;;;;;;;9.40;70.86;101644.38;30853436;28;97002;-65
2022/10/06 20:17:33;;;;;;;12.93;6.90;;;;;;;9.23;71.48;101639.63;30853409;28;96676;-65
2022/10/06 20:32:34;;;;;;;15.10;8.00;;;;;;;8.96;72.06;101651.53;30866146;28;96644;-65
2022/10/06 20:47:34;;;;;;;15.10;8.82;;;;;;;8.90;72.97;101646.69;30869694;28;97361;-67
2022/10/06 21:02:34;;;;;;;16.90;10.95;;;;;;;8.76;73.39;101651.31;30867086;28;107929;-64
2022/10/06 21:17:35;;;;;;;23.15;12.00;;;;;;;8.58;74.33;101655.44;30866625;28;100057;-66
2022/10/06 21:32:37;;;;;;;19.02;10.48;;;;;;;8.45;74.28;101658.22;30865508;28;111129;-65
2022/10/06 21:47:37;;;;;;;21.37;10.73;;;;;;;8.22;74.79;101670.59;30864145;28;97039;-66
2022/10/06 22:02:37;;;;;;;20.33;10.82;;;;;;;8.01;75.33;101660.66;30864153;28;100543;-65
2022/10/06 22:17:37;;;;;;;21.05;10.63;;;;;;;7.68;74.68;101664.06;30861849;28;105958;-65
2022/10/06 22:32:38;;;;;;;16.90;10.70;;;;;;;7.41;76.01;101666.00;30860798;28;96694;-66
2022/10/06 22:47:38;;;;;;;18.70;10.05;;;;;;;7.22;76.12;101655.91;30798930;28;97887;-66
2022/10/06 23:02:38;;;;;;;20.08;10.77;;;;;;;6.92;75.87;101645.75;30794417;28;121897;-65
2022/10/06 23:17:41;;;;;;;21.52;10.43;;;;;;;6.71;77.18;101648.97;30740363;28;97409;-66
2022/10/06 23:32:42;;;;;;;18.67;11.87;;;;;;;6.44;77.12;101646.47;30771269;28;102938;-62
2022/10/06 23:47:42;;;;;;;19.15;10.60;;;;;;;6.25;77.63;101654.84;30799329;28;96996;-65
